Cheshire, Oregon
Current Conditions -  °F | °C
As of 8:24 AM on Monday 26 Jan 2015 (Local Time) from KEUG Reporting Station
Moderate Fog Moderate Fog  
Wind Chill: 34°   Ceiling: 200
Heat Index: 38°   Visibility: 0.12mi
Dew Point: 37°   Wind: 5mph
Humidity: 97%   Direction: 240°WSW
Pressure: 30.03"   Gusts: NA
Location:  44.19°N, 123.29°W
Report Text: KEUG 261624Z 24004KT 1/8SM R16R/1000V1400FT FG VV002 03/03 A3003 RMK AO2 T00330028
Loading
Personal Weather Stations






























Interactive Weather Map New forecast layout! Learn more

10-Day Weather Forecast

Advertisements
Track Severe Weather on mobile